createdAt,value
2023-03-16T00:00:49.600Z,34.90
2023-03-16T00:03:20.964Z,35.30
2023-03-16T00:05:50.224Z,34.40
2023-03-16T00:08:18.047Z,29.50
2023-03-16T00:10:49.376Z,32.30
2023-03-16T00:13:18.059Z,30.20
2023-03-16T00:15:56.660Z,30.60
2023-03-16T00:18:28.997Z,33.60
2023-03-16T00:21:02.310Z,35.50
2023-03-16T00:23:30.101Z,26.50
2023-03-16T00:25:59.091Z,32.10
2023-03-16T00:28:28.046Z,30.40
2023-03-16T00:30:59.437Z,32.40
2023-03-16T00:33:27.605Z,29.10
2023-03-16T00:36:02.536Z,32.30
2023-03-16T00:38:34.992Z,36.80
2023-03-16T00:41:06.687Z,27.50
2023-03-16T00:43:41.280Z,28.10
2023-03-16T00:46:10.453Z,29.00
2023-03-16T00:48:39.533Z,29.40
2023-03-16T00:51:09.066Z,21.80
2023-03-16T00:53:37.843Z,24.50
2023-03-16T00:56:06.249Z,27.00
2023-03-16T00:58:36.103Z,22.00
2023-03-16T01:01:07.949Z,20.10
2023-03-16T01:03:36.455Z,22.70
2023-03-16T01:06:11.904Z,24.70
2023-03-16T01:08:40.276Z,22.00
2023-03-16T01:11:13.679Z,23.00
2023-03-16T01:13:41.504Z,23.10
2023-03-16T01:16:10.138Z,20.10
2023-03-16T01:18:38.046Z,22.60
2023-03-16T01:21:07.995Z,24.20
2023-03-16T01:23:38.901Z,24.60
2023-03-16T01:26:07.926Z,20.40
2023-03-16T01:28:35.752Z,18.30
2023-03-16T01:31:06.700Z,19.30
2023-03-16T01:33:34.730Z,18.70
2023-03-16T01:36:05.017Z,15.90
2023-03-16T01:46:06.741Z,20.50
2023-03-16T01:48:37.722Z,18.00
2023-03-16T01:51:11.675Z,17.60
2023-03-16T01:53:41.636Z,13.70
2023-03-16T01:56:10.200Z,15.70
2023-03-16T01:58:38.831Z,13.40
2023-03-16T02:01:06.814Z,14.80
2023-03-16T02:03:35.185Z,14.80
2023-03-16T02:06:06.586Z,15.90
2023-03-16T02:08:35.608Z,18.10
2023-03-16T02:11:04.959Z,14.00
2023-03-16T02:13:36.896Z,10.60
2023-03-16T02:16:06.404Z,15.50
2023-03-16T02:18:34.492Z,13.90
2023-03-16T02:21:11.502Z,15.00
2023-03-16T02:23:39.596Z,16.40
2023-03-16T02:26:27.593Z,15.40
2023-03-16T02:29:11.542Z,15.20
2023-03-16T02:31:39.618Z,15.00
2023-03-16T02:34:08.299Z,11.70
2023-03-16T02:36:36.783Z,11.50
2023-03-16T02:39:06.073Z,11.90
2023-03-16T02:41:34.346Z,10.00
2023-03-16T02:44:04.967Z,10.50
2023-03-16T02:46:35.948Z,13.20
2023-03-16T02:49:16.665Z,13.10
2023-03-16T02:51:45.860Z,14.60
2023-03-16T02:54:14.206Z,14.80
2023-03-16T02:56:42.144Z,17.20
2023-03-16T02:59:10.012Z,18.80
2023-03-16T03:01:37.856Z,15.20
2023-03-16T03:04:06.225Z,11.10
2023-03-16T03:06:34.606Z,8.60
2023-03-16T03:09:03.321Z,9.50
2023-03-16T03:11:31.465Z,12.20
2023-03-16T03:13:59.298Z,15.20
2023-03-16T03:16:27.252Z,12.10
2023-03-16T03:18:55.150Z,15.20
2023-03-16T03:21:24.164Z,10.00
2023-03-16T03:23:52.480Z,14.30
2023-03-16T03:26:20.452Z,13.40
2023-03-16T03:28:48.376Z,11.20
2023-03-16T03:31:21.486Z,9.60
2023-03-16T03:33:49.344Z,10.90
2023-03-16T03:36:17.409Z,13.80
2023-03-16T03:38:45.368Z,19.50
2023-03-16T03:41:13.193Z,11.60
2023-03-16T03:43:41.641Z,10.50
2023-03-16T03:46:09.589Z,10.50
2023-03-16T03:48:37.555Z,10.50
2023-03-16T03:51:06.851Z,15.40
2023-03-16T03:53:34.625Z,8.20
2023-03-16T03:56:02.575Z,8.50
2023-03-16T03:58:30.750Z,9.60
2023-03-16T04:00:58.610Z,10.30
2023-03-16T04:03:26.827Z,9.80
2023-03-16T04:05:56.193Z,12.00
2023-03-16T04:08:24.067Z,10.10
2023-03-16T04:10:52.058Z,9.50
2023-03-16T04:13:19.966Z,8.50
2023-03-16T04:15:47.817Z,13.90
2023-03-16T04:18:15.687Z,9.00
2023-03-16T04:20:43.515Z,10.70
2023-03-16T04:23:11.332Z,9.10
2023-03-16T04:25:39.185Z,14.30
2023-03-16T04:28:06.954Z,7.40
2023-03-16T04:30:35.248Z,9.20
2023-03-16T04:33:03.100Z,13.20
2023-03-16T04:35:32.022Z,8.70
2023-03-16T04:37:59.918Z,12.70
2023-03-16T04:40:28.208Z,11.50
2023-03-16T04:42:56.179Z,8.80
2023-03-16T04:45:24.430Z,10.40
2023-03-16T04:47:52.190Z,11.40
2023-03-16T04:50:20.055Z,10.60
2023-03-16T04:52:47.881Z,11.60
2023-03-16T04:55:15.740Z,10.40
2023-03-16T04:57:43.662Z,9.70
2023-03-16T05:00:14.932Z,9.10
2023-03-16T05:02:43.054Z,11.20
2023-03-16T05:05:11.227Z,14.60
2023-03-16T05:07:39.393Z,11.50
2023-03-16T05:10:11.232Z,9.60
2023-03-16T05:12:39.476Z,10.20
2023-03-16T05:15:07.952Z,14.20
2023-03-16T05:17:35.807Z,9.10
2023-03-16T05:20:08.480Z,10.60
2023-03-16T05:22:36.430Z,10.50
2023-03-16T05:25:05.643Z,12.00
2023-03-16T05:27:34.294Z,12.10
2023-03-16T05:30:02.054Z,11.50
2023-03-16T05:32:30.062Z,14.00
2023-03-16T05:34:58.693Z,10.90
2023-03-16T05:37:26.468Z,16.80
2023-03-16T05:39:54.231Z,11.60
2023-03-16T05:42:22.116Z,10.80
2023-03-16T05:44:50.131Z,11.50
2023-03-16T05:47:18.004Z,14.00
2023-03-16T05:49:45.867Z,11.40
2023-03-16T05:52:13.916Z,12.40
2023-03-16T05:54:43.069Z,13.10
2023-03-16T05:57:10.942Z,11.20
2023-03-16T05:59:38.709Z,12.90
2023-03-16T06:02:06.472Z,12.90
2023-03-16T06:04:34.219Z,18.30
2023-03-16T06:07:02.286Z,11.70
2023-03-16T06:09:30.156Z,11.60
2023-03-16T06:11:58.286Z,12.10
2023-03-16T06:14:26.082Z,17.50
2023-03-16T06:16:53.980Z,13.40
2023-03-16T06:19:21.770Z,12.60
2023-03-16T06:21:49.568Z,11.00
2023-03-16T06:24:17.516Z,17.30
2023-03-16T06:26:45.241Z,10.10
2023-03-16T06:29:13.295Z,8.50
2023-03-16T06:31:41.077Z,13.60
2023-03-16T06:34:08.984Z,13.30
2023-03-16T06:36:39.746Z,14.30
2023-03-16T06:39:07.685Z,10.90
2023-03-16T06:41:35.889Z,11.70
2023-03-16T06:44:03.798Z,11.20
2023-03-16T06:46:33.232Z,12.50
2023-03-16T06:49:01.099Z,10.60
2023-03-16T06:51:28.878Z,11.40
2023-03-16T06:53:56.747Z,9.80
2023-03-16T06:56:25.345Z,11.70
2023-03-16T06:58:53.117Z,9.80
2023-03-16T07:01:21.693Z,11.70
2023-03-16T07:03:49.726Z,13.50
2023-03-16T07:06:35.894Z,12.30
2023-03-16T07:09:05.083Z,10.20
2023-03-16T07:11:32.997Z,7.50
2023-03-16T07:14:01.682Z,10.40
2023-03-16T07:16:29.809Z,9.70
2023-03-16T07:18:58.133Z,9.90
2023-03-16T07:21:26.388Z,14.50
2023-03-16T07:23:55.845Z,13.10
2023-03-16T07:26:23.584Z,15.70
2023-03-16T07:28:51.700Z,9.60
2023-03-16T07:31:19.553Z,9.20
2023-03-16T07:33:47.588Z,11.30
2023-03-16T07:36:15.753Z,9.20
2023-03-16T07:38:46.845Z,15.30
2023-03-16T07:41:14.727Z,11.70
2023-03-16T07:43:44.500Z,9.80
2023-03-16T07:46:15.585Z,10.50
2023-03-16T07:48:44.528Z,9.30
2023-03-16T07:51:13.985Z,11.10
2023-03-16T07:53:42.199Z,10.50
2023-03-16T07:56:10.082Z,12.20
2023-03-16T07:58:37.984Z,9.60
2023-03-16T08:01:06.004Z,9.00
2023-03-16T08:03:34.075Z,10.10
2023-03-16T08:06:02.173Z,12.00
2023-03-16T08:08:30.038Z,14.20
2023-03-16T08:11:01.175Z,12.40
2023-03-16T08:13:30.498Z,11.50
2023-03-16T08:16:01.106Z,9.00
2023-03-16T08:18:32.537Z,10.00
2023-03-16T08:21:00.773Z,12.90
2023-03-16T08:23:29.597Z,7.60
2023-03-16T08:25:58.138Z,11.40
2023-03-16T08:28:26.199Z,9.80
2023-03-16T08:30:55.918Z,11.90
2023-03-16T08:33:24.594Z,11.00
2023-03-16T08:35:52.784Z,14.30
2023-03-16T08:38:20.654Z,11.50
2023-03-16T08:40:51.142Z,8.20
2023-03-16T08:43:19.216Z,9.80
2023-03-16T08:45:47.189Z,9.70
2023-03-16T08:48:15.553Z,10.70
2023-03-16T08:50:44.306Z,11.60
2023-03-16T08:53:15.133Z,9.50
2023-03-16T08:55:43.325Z,8.20
2023-03-16T08:58:12.903Z,7.70
2023-03-16T09:00:41.289Z,7.20
2023-03-16T09:03:10.389Z,7.30
2023-03-16T09:05:38.609Z,9.10
2023-03-16T09:08:06.845Z,6.90
2023-03-16T09:10:38.114Z,9.40
2023-03-16T09:13:06.233Z,5.70
2023-03-16T09:15:35.549Z,10.90
2023-03-16T09:18:04.335Z,14.20
2023-03-16T09:20:34.615Z,7.90
2023-03-16T09:23:03.744Z,7.10
2023-03-16T09:25:32.478Z,6.10
2023-03-16T09:28:01.118Z,6.90
2023-03-16T09:30:29.808Z,8.40
2023-03-16T09:32:57.956Z,7.20
2023-03-16T09:35:26.628Z,13.20
2023-03-16T09:38:05.545Z,8.00
2023-03-16T09:40:35.996Z,6.30
2023-03-16T09:43:04.395Z,9.30
2023-03-16T09:45:36.039Z,7.00
2023-03-16T09:48:05.770Z,8.00
2023-03-16T09:50:47.843Z,6.30
2023-03-16T09:53:22.261Z,8.10
2023-03-16T09:55:53.878Z,6.50
2023-03-16T09:58:22.571Z,6.70
2023-03-16T10:01:03.018Z,5.90
2023-03-16T10:03:49.976Z,7.50
2023-03-16T10:06:19.289Z,6.60
2023-03-16T10:08:53.292Z,5.60
2023-03-16T10:11:31.684Z,7.80
2023-03-16T10:13:59.528Z,6.80
2023-03-16T10:16:30.873Z,7.90
2023-03-16T10:19:08.837Z,8.00
2023-03-16T10:21:39.651Z,5.10
2023-03-16T10:24:16.454Z,6.90
2023-03-16T10:26:54.614Z,9.30
2023-03-16T10:29:23.636Z,8.60
2023-03-16T10:31:51.610Z,9.10
2023-03-16T10:34:20.081Z,7.30
2023-03-16T10:36:48.598Z,6.00
2023-03-16T10:39:17.861Z,5.50
2023-03-16T10:41:48.194Z,9.30
2023-03-16T10:44:17.337Z,5.70
2023-03-16T10:46:49.287Z,9.20
2023-03-16T10:49:22.175Z,8.80
2023-03-16T10:51:50.123Z,8.70
2023-03-16T10:54:32.818Z,6.20
2023-03-16T10:57:13.579Z,8.70
2023-03-16T10:59:47.836Z,4.70
2023-03-16T11:02:17.031Z,4.90
2023-03-16T11:04:46.264Z,11.50
2023-03-16T11:07:18.791Z,5.10
2023-03-16T11:09:47.876Z,7.50
2023-03-16T11:12:22.609Z,5.50
2023-03-16T11:14:50.520Z,6.10
2023-03-16T11:17:21.304Z,6.00
2023-03-16T11:19:52.187Z,10.00
2023-03-16T11:22:25.319Z,9.50
2023-03-16T11:24:59.351Z,6.60
2023-03-16T11:27:33.565Z,4.30
2023-03-16T11:30:21.208Z,8.30
2023-03-16T11:32:51.215Z,8.40
2023-03-16T11:35:41.969Z,7.70
2023-03-16T11:38:37.751Z,6.70
2023-03-16T11:41:10.542Z,4.80
2023-03-16T11:43:58.552Z,4.30
2023-03-16T11:46:28.577Z,8.40
2023-03-16T11:49:15.218Z,7.20
2023-03-16T11:51:56.571Z,6.60
2023-03-16T11:54:36.948Z,3.80
2023-03-16T11:57:19.439Z,4.90
2023-03-16T12:00:01.026Z,5.00
2023-03-16T12:02:53.576Z,2.90
2023-03-16T12:05:22.421Z,5.30
2023-03-16T12:08:09.425Z,6.20
2023-03-16T12:10:54.959Z,6.60
2023-03-16T12:13:30.909Z,5.70
2023-03-16T12:16:19.945Z,5.70
2023-03-16T12:18:50.617Z,6.10
2023-03-16T12:21:25.643Z,5.20
2023-03-16T12:23:53.563Z,3.60
2023-03-16T12:26:23.466Z,7.10
2023-03-16T12:28:54.396Z,6.20
2023-03-16T12:31:44.190Z,6.70
2023-03-16T12:34:31.232Z,4.50
2023-03-16T12:37:13.132Z,2.60
2023-03-16T12:40:06.080Z,5.40
2023-03-16T12:42:43.128Z,7.50
2023-03-16T12:45:17.819Z,7.30
2023-03-16T12:47:58.897Z,4.30
2023-03-16T12:50:27.435Z,4.70
2023-03-16T12:52:55.976Z,6.00
2023-03-16T12:55:39.905Z,5.10
2023-03-16T12:58:08.741Z,3.90
2023-03-16T13:00:38.411Z,4.90
2023-03-16T13:03:12.042Z,4.50
2023-03-16T13:05:45.765Z,3.50
2023-03-16T13:08:15.933Z,4.20
2023-03-16T13:10:59.777Z,4.80
2023-03-16T13:13:28.527Z,5.70
2023-03-16T13:16:11.119Z,2.70
2023-03-16T13:18:44.736Z,4.70
2023-03-16T13:21:17.780Z,8.50
2023-03-16T13:23:57.777Z,6.40
2023-03-16T13:27:02.798Z,7.00
2023-03-16T13:29:32.049Z,5.10
2023-03-16T13:32:02.378Z,4.30
2023-03-16T13:34:31.914Z,5.30
2023-03-16T13:37:01.558Z,3.00
2023-03-16T13:39:30.391Z,3.00
2023-03-16T13:42:14.075Z,7.20
2023-03-16T13:44:42.468Z,5.90
2023-03-16T13:47:14.784Z,3.20
2023-03-16T13:49:47.397Z,4.70
2023-03-16T13:52:21.048Z,3.80
2023-03-16T13:54:49.943Z,6.70
2023-03-16T13:57:19.741Z,8.40
2023-03-16T13:59:48.416Z,5.50
2023-03-16T14:02:20.816Z,5.00
2023-03-16T14:04:48.799Z,2.30
2023-03-16T14:07:18.106Z,7.40
2023-03-16T14:09:46.830Z,2.80
2023-03-16T14:12:15.496Z,4.60
2023-03-16T14:14:46.394Z,4.40
2023-03-16T14:17:16.228Z,6.20
2023-03-16T14:19:46.959Z,3.60
2023-03-16T14:22:24.044Z,4.90
2023-03-16T14:24:54.110Z,3.90
2023-03-16T14:27:21.898Z,5.20
2023-03-16T14:29:54.551Z,2.50
2023-03-16T14:32:28.598Z,4.90
2023-03-16T14:35:10.209Z,6.20
2023-03-16T14:37:38.841Z,3.50
2023-03-16T14:40:09.095Z,4.50
2023-03-16T14:42:39.305Z,6.70
2023-03-16T14:45:11.303Z,6.70
2023-03-16T14:47:42.077Z,4.60
2023-03-16T14:50:14.584Z,3.90
2023-03-16T14:52:44.005Z,4.70
2023-03-16T14:55:13.828Z,4.30
2023-03-16T14:57:42.540Z,4.70
2023-03-16T15:00:12.683Z,3.50
2023-03-16T15:02:41.582Z,7.70
2023-03-16T15:05:11.043Z,3.90
2023-03-16T15:07:40.820Z,5.50
2023-03-16T15:10:15.460Z,3.80
2023-03-16T15:12:50.760Z,3.50
2023-03-16T15:15:20.035Z,6.30
2023-03-16T15:17:48.910Z,8.00
2023-03-16T15:20:18.099Z,5.30
2023-03-16T15:22:46.788Z,8.50
2023-03-16T15:25:18.176Z,2.80
2023-03-16T15:27:47.684Z,6.40
2023-03-16T15:30:26.013Z,5.10
2023-03-16T15:32:53.940Z,5.40
2023-03-16T15:35:21.877Z,3.60
2023-03-16T15:37:49.957Z,3.10
2023-03-16T15:40:22.776Z,4.40
2023-03-16T15:42:51.093Z,6.20
2023-03-16T15:45:20.944Z,10.70
2023-03-16T15:47:49.986Z,11.80
2023-03-16T15:50:19.646Z,8.40
2023-03-16T15:52:49.731Z,6.00
2023-03-16T15:55:23.152Z,4.60
2023-03-16T15:57:54.668Z,4.50
2023-03-16T16:00:25.927Z,4.50
2023-03-16T16:02:58.658Z,8.10
2023-03-16T16:05:27.461Z,5.30
2023-03-16T16:07:55.678Z,6.50
2023-03-16T16:10:25.059Z,6.00
2023-03-16T16:12:54.710Z,6.00
2023-03-16T16:15:31.233Z,6.80
2023-03-16T16:18:20.336Z,6.10
2023-03-16T16:20:48.467Z,4.80
2023-03-16T16:23:16.266Z,6.40
2023-03-16T16:25:44.988Z,8.90
2023-03-16T16:28:21.508Z,8.90
2023-03-16T16:33:33.949Z,9.10
2023-03-16T16:36:03.476Z,15.50
2023-03-16T16:38:32.707Z,18.40
2023-03-16T16:41:02.893Z,20.90
2023-03-16T16:43:34.461Z,10.40
2023-03-16T16:46:04.993Z,10.40
2023-03-16T16:48:37.863Z,9.00
2023-03-16T16:51:07.353Z,11.40
2023-03-16T16:53:35.654Z,17.90
2023-03-16T16:56:03.499Z,20.40
2023-03-16T16:58:32.395Z,16.10
2023-03-16T17:01:00.356Z,14.70
2023-03-16T17:03:29.433Z,14.10
2023-03-16T17:05:59.543Z,57.80
2023-03-16T17:08:28.685Z,72.70
2023-03-16T17:10:57.342Z,53.30
2023-03-16T17:13:32.774Z,51.70
2023-03-16T17:16:01.430Z,54.10
2023-03-16T17:18:30.222Z,78.00
2023-03-16T17:20:58.447Z,75.50
2023-03-16T17:23:26.605Z,75.60
2023-03-16T17:25:55.453Z,54.10
2023-03-16T17:28:26.177Z,171.90
2023-03-16T17:30:54.636Z,166.60
2023-03-16T17:33:24.783Z,150.70
2023-03-16T17:35:54.390Z,133.20
2023-03-16T17:38:23.252Z,131.30
2023-03-16T17:40:52.079Z,104.80
2023-03-16T17:43:22.022Z,100.40
2023-03-16T17:45:55.325Z,77.00
2023-03-16T17:48:24.313Z,192.50
2023-03-16T17:52:02.259Z,234.70
2023-03-16T17:54:31.038Z,259.20
2023-03-16T17:56:58.938Z,257.90
2023-03-16T17:59:27.661Z,272.80
2023-03-16T18:01:55.822Z,246.70
2023-03-16T18:04:24.980Z,225.70
2023-03-16T18:06:53.633Z,250.50
2023-03-16T18:09:21.588Z,250.00
2023-03-16T18:11:51.249Z,214.00
2023-03-16T18:14:19.223Z,193.20
2023-03-16T18:16:47.395Z,197.20
2023-03-16T18:19:25.506Z,176.70
2023-03-16T18:27:38.730Z,263.60
2023-03-16T18:30:05.720Z,286.30
2023-03-16T18:32:32.579Z,290.20
2023-03-16T18:34:59.456Z,318.00
2023-03-16T18:37:29.383Z,245.60
2023-03-16T18:39:56.003Z,220.50
2023-03-16T18:42:25.208Z,229.30
2023-03-16T18:44:51.674Z,296.40
2023-03-16T18:47:20.152Z,319.20
2023-03-16T18:49:48.904Z,416.40
2023-03-16T18:52:20.475Z,507.40
2023-03-16T18:54:47.680Z,607.20
2023-03-16T18:57:20.836Z,602.50
2023-03-16T18:59:47.906Z,393.20
2023-03-16T19:02:35.394Z,388.00
2023-03-16T19:05:03.870Z,403.10
2023-03-16T19:07:34.874Z,346.40
2023-03-16T19:10:04.832Z,282.20
2023-03-16T19:12:31.365Z,287.50
2023-03-16T19:14:57.804Z,242.90
2023-03-16T19:17:24.443Z,174.70
2023-03-16T19:19:50.937Z,176.40
2023-03-16T19:22:18.519Z,190.60
2023-03-16T19:24:45.579Z,184.10
2023-03-16T19:27:18.247Z,198.50
2023-03-16T19:29:44.806Z,178.70
2023-03-16T19:32:17.106Z,184.10
2023-03-16T19:34:43.969Z,187.70
2023-03-16T19:37:13.503Z,184.80
2023-03-16T19:39:40.483Z,213.80
2023-03-16T19:42:14.452Z,228.00
2023-03-16T19:44:41.876Z,275.60
2023-03-16T19:47:21.148Z,259.90
2023-03-16T19:49:47.610Z,251.90
2023-03-16T19:52:14.090Z,333.30
2023-03-16T19:54:43.525Z,319.30
2023-03-16T19:57:15.111Z,337.00
2023-03-16T19:59:43.014Z,296.40
2023-03-16T20:02:28.933Z,333.90
2023-03-16T20:04:56.521Z,311.10
2023-03-16T20:07:23.544Z,297.20
2023-03-16T20:09:50.685Z,274.30
2023-03-16T20:12:27.516Z,278.50
2023-03-16T20:14:55.308Z,284.80
2023-03-16T20:17:26.933Z,251.90
2023-03-16T20:19:55.688Z,234.30
2023-03-16T20:22:24.291Z,224.30
2023-03-16T20:24:51.385Z,216.50
2023-03-16T20:27:18.984Z,207.60
2023-03-16T20:35:24.430Z,181.90
2023-03-16T20:37:54.168Z,178.50
2023-03-16T20:40:22.133Z,175.90
2023-03-16T20:42:50.412Z,158.00
2023-03-16T20:45:18.613Z,171.60
2023-03-16T20:47:45.296Z,177.00
2023-03-16T20:50:38.530Z,161.30
2023-03-16T20:53:05.292Z,173.00
2023-03-16T20:55:32.670Z,168.90
2023-03-16T20:58:00.634Z,158.90
2023-03-16T21:00:36.844Z,152.20
2023-03-16T21:03:04.693Z,142.00
2023-03-16T21:05:31.975Z,148.00
2023-03-16T21:07:58.848Z,131.40
2023-03-16T21:10:25.523Z,119.60
2023-03-16T21:12:53.398Z,90.40
2023-03-16T21:15:23.177Z,84.50
2023-03-16T21:17:53.629Z,54.90
2023-03-16T21:20:21.042Z,69.20
2023-03-16T21:22:47.675Z,68.30
2023-03-16T21:25:22.487Z,48.40
2023-03-16T21:27:50.176Z,49.30
2023-03-16T21:30:20.209Z,38.50
2023-03-16T21:32:46.775Z,56.50
2023-03-16T21:35:14.451Z,57.10
2023-03-16T21:37:40.863Z,62.80
2023-03-16T21:40:17.884Z,61.00
2023-03-16T21:42:44.826Z,50.80
2023-03-16T21:45:12.005Z,73.40
2023-03-16T21:47:39.011Z,65.10
2023-03-16T21:50:12.587Z,63.80
2023-03-16T21:52:40.648Z,77.90
2023-03-16T21:55:17.526Z,73.80
2023-03-16T21:57:50.413Z,67.70
2023-03-16T22:00:25.047Z,66.90
2023-03-16T22:02:53.087Z,67.90
2023-03-16T22:05:23.900Z,68.80
2023-03-16T22:07:50.809Z,58.10
2023-03-16T22:10:17.761Z,67.50
2023-03-16T22:12:44.214Z,68.60
2023-03-16T22:15:12.998Z,63.20
2023-03-16T22:17:39.410Z,67.80
2023-03-16T22:20:15.790Z,68.90
2023-03-16T22:22:42.262Z,62.50
2023-03-16T22:25:13.148Z,55.00
2023-03-16T22:29:18.154Z,60.00
2023-03-16T22:31:46.883Z,64.80
2023-03-16T22:34:27.984Z,65.60
2023-03-16T22:36:55.420Z,64.10
2023-03-16T22:39:22.272Z,66.10
2023-03-16T22:41:49.162Z,59.10
2023-03-16T22:44:17.912Z,57.00
2023-03-16T22:46:44.568Z,55.40
2023-03-16T22:49:21.652Z,50.50
2023-03-16T22:51:49.305Z,41.80
2023-03-16T22:54:17.849Z,29.30
2023-03-16T22:56:47.498Z,28.80
2023-03-16T22:59:16.799Z,26.50
2023-03-16T23:01:48.959Z,31.20
2023-03-16T23:04:20.014Z,21.10
2023-03-16T23:06:47.924Z,18.60
2023-03-16T23:09:15.247Z,16.50
2023-03-16T23:11:43.649Z,17.70
2023-03-16T23:14:14.242Z,19.20
2023-03-16T23:16:41.429Z,21.70
2023-03-16T23:19:31.255Z,18.30
2023-03-16T23:22:04.536Z,21.60
2023-03-16T23:24:34.988Z,26.50
2023-03-16T23:27:02.077Z,26.40
2023-03-16T23:29:28.927Z,26.60
2023-03-16T23:31:56.026Z,22.90
2023-03-16T23:34:23.349Z,24.50
2023-03-16T23:36:50.807Z,21.70
2023-03-16T23:39:18.173Z,23.50
2023-03-16T23:41:46.078Z,24.60
2023-03-16T23:44:22.752Z,28.40
2023-03-16T23:46:50.299Z,22.50
2023-03-16T23:49:36.936Z,23.50
2023-03-16T23:52:04.024Z,27.00
2023-03-16T23:54:31.266Z,28.00
2023-03-16T23:56:58.163Z,27.80
2023-03-16T23:59:25.965Z,28.10
